sensor_id;sensor_type;location;lat;lon;timestamp;pressure;altitude;pressure_sealevel;temperature;humidity
14790;BME280;7486;51.010;10.366;2023-05-23T00:01:02;97948.34;;;14.08;75.84
14790;BME280;7486;51.010;10.366;2023-05-23T00:03:47;97941.91;;;13.81;76.35
14790;BME280;7486;51.010;10.366;2023-05-23T00:06:33;97946.78;;;13.72;77.55
14790;BME280;7486;51.010;10.366;2023-05-23T00:09:20;97958.91;;;13.56;78.56
14790;BME280;7486;51.010;10.366;2023-05-23T00:12:05;97857.31;;;12.90;78.27
14790;BME280;7486;51.010;10.366;2023-05-23T00:14:51;97923.13;;;13.29;79.10
14790;BME280;7486;51.010;10.366;2023-05-23T00:17:37;98018.19;;;13.87;79.01
14790;BME280;7486;51.010;10.366;2023-05-23T00:20:23;97964.75;;;13.23;79.70
14790;BME280;7486;51.010;10.366;2023-05-23T00:23:09;97889.44;;;12.77;79.90
14790;BME280;7486;51.010;10.366;2023-05-23T00:25:55;98020.19;;;13.38;80.55
14790;BME280;7486;51.010;10.366;2023-05-23T00:28:40;97794.84;;;12.04;80.56
14790;BME280;7486;51.010;10.366;2023-05-23T00:31:26;97863.31;;;12.44;80.68
14790;BME280;7486;51.010;10.366;2023-05-23T00:34:15;97889.75;;;12.68;80.57
14790;BME280;7486;51.010;10.366;2023-05-23T00:37:01;97973.06;;;13.15;81.20
14790;BME280;7486;51.010;10.366;2023-05-23T00:39:47;98009.22;;;13.05;82.66
14790;BME280;7486;51.010;10.366;2023-05-23T00:42:33;97927.41;;;12.65;82.51
14790;BME280;7486;51.010;10.366;2023-05-23T00:45:19;97990.03;;;13.03;82.13
14790;BME280;7486;51.010;10.366;2023-05-23T00:48:05;98049.47;;;13.50;81.77
14790;BME280;7486;51.010;10.366;2023-05-23T00:50:52;97859.72;;;12.38;81.26
14790;BME280;7486;51.010;10.366;2023-05-23T00:53:38;97944.44;;;12.88;80.84
14790;BME280;7486;51.010;10.366;2023-05-23T00:56:24;97931.88;;;12.95;80.53
14790;BME280;7486;51.010;10.366;2023-05-23T00:59:10;98017.75;;;13.37;80.98
14790;BME280;7486;51.010;10.366;2023-05-23T01:01:57;98017.63;;;13.43;81.41
14790;BME280;7486;51.010;10.366;2023-05-23T01:04:45;97977.91;;;13.18;81.28
14790;BME280;7486;51.010;10.366;2023-05-23T01:07:30;97846.38;;;12.15;81.41
14790;BME280;7486;51.010;10.366;2023-05-23T01:10:19;98057.28;;;13.33;82.62
14790;BME280;7486;51.010;10.366;2023-05-23T01:16:08;98016.03;;;13.42;81.37
14790;BME280;7486;51.010;10.366;2023-05-23T01:18:59;98053.72;;;13.69;80.81
14790;BME280;7486;51.010;10.366;2023-05-23T01:21:52;97967.28;;;13.18;80.24
14790;BME280;7486;51.010;10.366;2023-05-23T01:24:49;97961.75;;;13.20;79.25
14790;BME280;7486;51.010;10.366;2023-05-23T01:27:52;98060.41;;;13.71;79.89
14790;BME280;7486;51.010;10.366;2023-05-23T01:30:39;97977.38;;;13.28;78.91
14790;BME280;7486;51.010;10.366;2023-05-23T01:33:27;97734.94;;;11.67;78.88
14790;BME280;7486;51.010;10.366;2023-05-23T01:36:13;97737.34;;;11.68;78.82
14790;BME280;7486;51.010;10.366;2023-05-23T01:38:58;98041.13;;;13.35;79.37
14790;BME280;7486;51.010;10.366;2023-05-23T01:41:45;97921.59;;;12.57;79.30
14790;BME280;7486;51.010;10.366;2023-05-23T01:44:33;98053.72;;;13.39;79.44
14790;BME280;7486;51.010;10.366;2023-05-23T01:47:19;97831.38;;;11.91;79.18
14790;BME280;7486;51.010;10.366;2023-05-23T01:50:07;97883.09;;;12.18;79.52
14790;BME280;7486;51.010;10.366;2023-05-23T01:52:54;97866.78;;;12.14;78.85
14790;BME280;7486;51.010;10.366;2023-05-23T01:55:40;98058.09;;;13.34;79.22
14790;BME280;7486;51.010;10.366;2023-05-23T01:58:26;97959.72;;;12.81;78.89
14790;BME280;7486;51.010;10.366;2023-05-23T02:01:12;97961.09;;;12.95;78.06
14790;BME280;7486;51.010;10.366;2023-05-23T02:03:58;98066.69;;;13.47;78.82
14790;BME280;7486;51.010;10.366;2023-05-23T02:06:43;97950.91;;;12.80;78.62
14790;BME280;7486;51.010;10.366;2023-05-23T02:09:30;98013.19;;;13.14;77.92
14790;BME280;7486;51.010;10.366;2023-05-23T02:12:16;98027.31;;;13.26;78.12
14790;BME280;7486;51.010;10.366;2023-05-23T02:15:01;97920.25;;;12.48;78.35
14790;BME280;7486;51.010;10.366;2023-05-23T02:17:48;98044.19;;;13.20;78.38
14790;BME280;7486;51.010;10.366;2023-05-23T02:20:33;97824.44;;;11.90;77.81
14790;BME280;7486;51.010;10.366;2023-05-23T02:23:19;98077.34;;;13.47;78.22
14790;BME280;7486;51.010;10.366;2023-05-23T02:26:04;97964.88;;;12.76;78.96
14790;BME280;7486;51.010;10.366;2023-05-23T02:28:50;98049.09;;;13.05;79.25
14790;BME280;7486;51.010;10.366;2023-05-23T02:31:35;98043.38;;;13.08;79.65
14790;BME280;7486;51.010;10.366;2023-05-23T02:34:21;97857.53;;;11.87;79.74
14790;BME280;7486;51.010;10.366;2023-05-23T02:37:06;97953.59;;;12.14;81.02
14790;BME280;7486;51.010;10.366;2023-05-23T02:39:54;98058.91;;;12.74;82.44
14790;BME280;7486;51.010;10.366;2023-05-23T02:42:40;97976.97;;;12.05;83.97
14790;BME280;7486;51.010;10.366;2023-05-23T02:45:25;98012.22;;;12.31;84.22
14790;BME280;7486;51.010;10.366;2023-05-23T02:48:10;98076.69;;;12.74;85.65
14790;BME280;7486;51.010;10.366;2023-05-23T02:50:56;98080.25;;;12.68;86.82
14790;BME280;7486;51.010;10.366;2023-05-23T02:53:42;98077.72;;;12.55;87.53
14790;BME280;7486;51.010;10.366;2023-05-23T02:56:27;98053.31;;;12.28;88.30
14790;BME280;7486;51.010;10.366;2023-05-23T02:59:13;97829.78;;;10.92;88.91
14790;BME280;7486;51.010;10.366;2023-05-23T03:01:59;98046.22;;;12.40;88.31
14790;BME280;7486;51.010;10.366;2023-05-23T03:04:44;97990.09;;;12.00;88.10
14790;BME280;7486;51.010;10.366;2023-05-23T03:07:30;97923.38;;;11.60;88.32
14790;BME280;7486;51.010;10.366;2023-05-23T03:10:15;98060.41;;;12.52;88.48
14790;BME280;7486;51.010;10.366;2023-05-23T03:13:01;98028.06;;;12.37;88.81
14790;BME280;7486;51.010;10.366;2023-05-23T03:15:47;98085.81;;;12.66;88.95
14790;BME280;7486;51.010;10.366;2023-05-23T03:18:32;98045.94;;;12.48;89.19
14790;BME280;7486;51.010;10.366;2023-05-23T03:21:19;97960.81;;;12.25;87.85
14790;BME280;7486;51.010;10.366;2023-05-23T03:24:05;98022.78;;;12.73;86.79
14790;BME280;7486;51.010;10.366;2023-05-23T03:26:50;97936.59;;;12.33;85.69
14790;BME280;7486;51.010;10.366;2023-05-23T03:29:36;97992.66;;;12.61;85.44
14790;BME280;7486;51.010;10.366;2023-05-23T03:32:22;98048.84;;;12.95;86.04
14790;BME280;7486;51.010;10.366;2023-05-23T03:35:08;98085.72;;;13.21;86.28
14790;BME280;7486;51.010;10.366;2023-05-23T03:37:54;98069.50;;;13.11;86.32
14790;BME280;7486;51.010;10.366;2023-05-23T03:40:39;98041.31;;;12.92;85.95
14790;BME280;7486;51.010;10.366;2023-05-23T03:43:24;97935.28;;;12.24;85.68
14790;BME280;7486;51.010;10.366;2023-05-23T03:46:10;97850.69;;;11.43;86.50
14790;BME280;7486;51.010;10.366;2023-05-23T03:48:56;98008.00;;;12.23;87.99
14790;BME280;7486;51.010;10.366;2023-05-23T03:51:42;97944.44;;;11.73;87.78
14790;BME280;7486;51.010;10.366;2023-05-23T03:54:28;98066.16;;;12.31;89.72
14790;BME280;7486;51.010;10.366;2023-05-23T03:57:14;97983.22;;;11.93;88.89
14790;BME280;7486;51.010;10.366;2023-05-23T04:00:02;98057.78;;;12.09;89.27
14790;BME280;7486;51.010;10.366;2023-05-23T04:02:48;98129.69;;;12.51;90.04
14790;BME280;7486;51.010;10.366;2023-05-23T04:05:35;98124.38;;;12.51;88.75
14790;BME280;7486;51.010;10.366;2023-05-23T04:08:20;98077.50;;;11.95;88.46
14790;BME280;7486;51.010;10.366;2023-05-23T04:11:08;98077.69;;;12.00;88.80
14790;BME280;7486;51.010;10.366;2023-05-23T04:13:55;97939.66;;;10.83;89.16
14790;BME280;7486;51.010;10.366;2023-05-23T04:16:40;97903.25;;;10.41;88.44
14790;BME280;7486;51.010;10.366;2023-05-23T04:19:26;97484.72;;;7.93;85.71
14790;BME280;7486;51.010;10.366;2023-05-23T04:22:12;97938.38;;;10.67;84.40
14790;BME280;7486;51.010;10.366;2023-05-23T04:24:57;98114.91;;;11.94;83.72
14790;BME280;7486;51.010;10.366;2023-05-23T04:27:45;98104.66;;;12.22;82.51
14790;BME280;7486;51.010;10.366;2023-05-23T04:30:31;97965.09;;;11.47;82.00
14790;BME280;7486;51.010;10.366;2023-05-23T04:33:17;97974.50;;;11.67;82.29
14790;BME280;7486;51.010;10.366;2023-05-23T04:36:03;98117.41;;;12.56;81.77
14790;BME280;7486;51.010;10.366;2023-05-23T04:38:50;98143.59;;;12.89;80.85
14790;BME280;7486;51.010;10.366;2023-05-23T04:41:37;97809.44;;;10.61;82.10
14790;BME280;7486;51.010;10.366;2023-05-23T04:44:55;97945.03;;;11.51;82.75
14790;BME280;7486;51.010;10.366;2023-05-23T04:48:00;98055.44;;;12.38;81.87
14790;BME280;7486;51.010;10.366;2023-05-23T04:50:56;97920.06;;;11.40;81.38
14790;BME280;7486;51.010;10.366;2023-05-23T04:53:41;98028.72;;;11.96;81.44
14790;BME280;7486;51.010;10.366;2023-05-23T04:56:28;98035.91;;;12.14;81.30
14790;BME280;7486;51.010;10.366;2023-05-23T04:59:14;98062.72;;;12.06;81.33
14790;BME280;7486;51.010;10.366;2023-05-23T05:02:00;97856.22;;;10.99;80.78
14790;BME280;7486;51.010;10.366;2023-05-23T05:04:46;97936.50;;;11.24;81.22
14790;BME280;7486;51.010;10.366;2023-05-23T05:07:32;98110.84;;;12.34;81.77
14790;BME280;7486;51.010;10.366;2023-05-23T05:10:19;98162.13;;;12.78;81.17
14790;BME280;7486;51.010;10.366;2023-05-23T05:13:04;98073.09;;;12.32;79.83
14790;BME280;7486;51.010;10.366;2023-05-23T05:15:59;97899.06;;;11.14;79.91
14790;BME280;7486;51.010;10.366;2023-05-23T05:18:47;98097.06;;;12.44;80.21
14790;BME280;7486;51.010;10.366;2023-05-23T05:21:32;98134.09;;;12.63;79.62
14790;BME280;7486;51.010;10.366;2023-05-23T05:24:18;98103.69;;;12.59;79.65
14790;BME280;7486;51.010;10.366;2023-05-23T05:27:04;98007.81;;;11.82;78.71
14790;BME280;7486;51.010;10.366;2023-05-23T05:29:50;98046.81;;;12.24;78.91
14790;BME280;7486;51.010;10.366;2023-05-23T05:32:35;97945.16;;;11.62;78.71
14790;BME280;7486;51.010;10.366;2023-05-23T05:35:20;98124.41;;;12.69;79.28
14790;BME280;7486;51.010;10.366;2023-05-23T05:38:06;98113.19;;;12.67;79.36
14790;BME280;7486;51.010;10.366;2023-05-23T05:40:52;98154.16;;;12.78;79.62
14790;BME280;7486;51.010;10.366;2023-05-23T05:43:41;98091.59;;;12.20;79.92
14790;BME280;7486;51.010;10.366;2023-05-23T05:46:27;98093.66;;;12.18;79.67
14790;BME280;7486;51.010;10.366;2023-05-23T05:49:13;98081.53;;;12.04;80.49
14790;BME280;7486;51.010;10.366;2023-05-23T05:51:59;98088.03;;;12.08;80.15
14790;BME280;7486;51.010;10.366;2023-05-23T05:54:44;98086.84;;;12.04;81.01
14790;BME280;7486;51.010;10.366;2023-05-23T05:57:30;98134.47;;;12.42;80.24
14790;BME280;7486;51.010;10.366;2023-05-23T06:00:17;98072.09;;;12.08;79.64
14790;BME280;7486;51.010;10.366;2023-05-23T06:03:02;97978.16;;;11.17;79.75
14790;BME280;7486;51.010;10.366;2023-05-23T06:05:55;98104.56;;;11.86;79.91
14790;BME280;7486;51.010;10.366;2023-05-23T06:08:41;98104.75;;;11.59;80.00
14790;BME280;7486;51.010;10.366;2023-05-23T06:11:29;98069.28;;;11.54;80.20
14790;BME280;7486;51.010;10.366;2023-05-23T06:14:15;98088.78;;;11.66;79.06
14790;BME280;7486;51.010;10.366;2023-05-23T06:17:03;98165.09;;;12.02;80.93
14790;BME280;7486;51.010;10.366;2023-05-23T06:19:49;98121.88;;;11.63;80.70
14790;BME280;7486;51.010;10.366;2023-05-23T06:22:34;98131.13;;;11.48;81.54
14790;BME280;7486;51.010;10.366;2023-05-23T06:25:21;98087.50;;;11.12;81.97
14790;BME280;7486;51.010;10.366;2023-05-23T06:28:07;98067.50;;;11.10;80.98
14790;BME280;7486;51.010;10.366;2023-05-23T06:30:53;98101.13;;;11.47;80.27
14790;BME280;7486;51.010;10.366;2023-05-23T06:33:38;97934.72;;;10.11;79.84
14790;BME280;7486;51.010;10.366;2023-05-23T06:36:23;98174.50;;;11.66;81.06
14790;BME280;7486;51.010;10.366;2023-05-23T06:39:09;97935.50;;;10.24;82.24
14790;BME280;7486;51.010;10.366;2023-05-23T06:41:55;98081.13;;;11.20;80.43
14790;BME280;7486;51.010;10.366;2023-05-23T06:44:40;98151.31;;;11.87;79.29
14790;BME280;7486;51.010;10.366;2023-05-23T06:47:28;98049.06;;;11.28;79.56
14790;BME280;7486;51.010;10.366;2023-05-23T06:50:13;97958.69;;;10.73;79.75
14790;BME280;7486;51.010;10.366;2023-05-23T06:52:59;97959.28;;;10.76;79.20
14790;BME280;7486;51.010;10.366;2023-05-23T06:55:44;98061.88;;;11.62;78.89
14790;BME280;7486;51.010;10.366;2023-05-23T06:58:32;98165.44;;;12.30;78.06
14790;BME280;7486;51.010;10.366;2023-05-23T07:01:19;98042.72;;;11.60;77.46
14790;BME280;7486;51.010;10.366;2023-05-23T07:04:06;97941.91;;;11.11;76.50
14790;BME280;7486;51.010;10.366;2023-05-23T07:06:52;98201.19;;;12.95;77.02
14790;BME280;7486;51.010;10.366;2023-05-23T07:09:38;97943.25;;;11.45;74.39
14790;BME280;7486;51.010;10.366;2023-05-23T07:12:28;98165.59;;;12.78;74.61
14790;BME280;7486;51.010;10.366;2023-05-23T07:15:16;98201.88;;;12.91;75.77
14790;BME280;7486;51.010;10.366;2023-05-23T07:18:12;98140.38;;;12.44;74.48
14790;BME280;7486;51.010;10.366;2023-05-23T07:20:57;98192.69;;;12.68;75.68
14790;BME280;7486;51.010;10.366;2023-05-23T07:23:43;98150.56;;;12.29;75.27
14790;BME280;7486;51.010;10.366;2023-05-23T07:26:29;97962.94;;;10.81;76.99
14790;BME280;7486;51.010;10.366;2023-05-23T07:29:15;97854.41;;;10.37;76.81
14790;BME280;7486;51.010;10.366;2023-05-23T07:32:03;98037.50;;;11.72;76.00
14790;BME280;7486;51.010;10.366;2023-05-23T07:34:48;98083.56;;;11.84;76.25
14790;BME280;7486;51.010;10.366;2023-05-23T07:37:34;97935.31;;;11.20;76.06
14790;BME280;7486;51.010;10.366;2023-05-23T07:40:20;98207.00;;;12.67;75.96
14790;BME280;7486;51.010;10.366;2023-05-23T07:43:06;98024.00;;;11.55;75.80
14790;BME280;7486;51.010;10.366;2023-05-23T07:45:51;98092.97;;;12.23;75.61
14790;BME280;7486;51.010;10.366;2023-05-23T07:48:37;98169.81;;;12.43;74.92
14790;BME280;7486;51.010;10.366;2023-05-23T07:51:23;97922.84;;;11.02;75.39
14790;BME280;7486;51.010;10.366;2023-05-23T07:54:09;98185.25;;;12.52;76.01
14790;BME280;7486;51.010;10.366;2023-05-23T07:56:58;98168.56;;;12.45;76.22
14790;BME280;7486;51.010;10.366;2023-05-23T07:59:43;98187.66;;;12.60;76.10
14790;BME280;7486;51.010;10.366;2023-05-23T08:02:29;98111.81;;;11.97;75.90
14790;BME280;7486;51.010;10.366;2023-05-23T08:05:15;98122.31;;;12.10;76.79
14790;BME280;7486;51.010;10.366;2023-05-23T08:08:00;98020.09;;;11.51;76.41
14790;BME280;7486;51.010;10.366;2023-05-23T08:10:46;98189.63;;;12.22;76.28
14790;BME280;7486;51.010;10.366;2023-05-23T08:13:39;98155.25;;;11.78;77.38
14790;BME280;7486;51.010;10.366;2023-05-23T08:16:43;98248.03;;;12.22;78.18
14790;BME280;7486;51.010;10.366;2023-05-23T08:19:34;98210.47;;;12.18;78.37
14790;BME280;7486;51.010;10.366;2023-05-23T08:22:20;98199.09;;;12.36;77.94
14790;BME280;7486;51.010;10.366;2023-05-23T08:25:06;98188.00;;;12.21;76.87
14790;BME280;7486;51.010;10.366;2023-05-23T08:27:54;98223.28;;;12.28;77.49
14790;BME280;7486;51.010;10.366;2023-05-23T08:31:08;98251.56;;;12.41;77.95
14790;BME280;7486;51.010;10.366;2023-05-23T08:33:54;98215.63;;;12.38;78.00
14790;BME280;7486;51.010;10.366;2023-05-23T08:36:40;98118.09;;;11.78;77.66
14790;BME280;7486;51.010;10.366;2023-05-23T08:39:28;98109.59;;;11.94;76.82
14790;BME280;7486;51.010;10.366;2023-05-23T08:42:33;98227.66;;;12.65;76.95
14790;BME280;7486;51.010;10.366;2023-05-23T08:45:18;98161.56;;;12.08;78.11
14790;BME280;7486;51.010;10.366;2023-05-23T08:48:07;98223.38;;;12.64;77.88
14790;BME280;7486;51.010;10.366;2023-05-23T08:50:58;98225.97;;;12.71;76.76
14790;BME280;7486;51.010;10.366;2023-05-23T08:53:45;98180.72;;;12.59;76.99
14790;BME280;7486;51.010;10.366;2023-05-23T08:56:32;98064.94;;;12.09;76.66
14790;BME280;7486;51.010;10.366;2023-05-23T08:59:19;98125.38;;;12.32;75.99
14790;BME280;7486;51.010;10.366;2023-05-23T09:02:07;98254.88;;;13.22;75.67
14790;BME280;7486;51.010;10.366;2023-05-23T09:04:55;98005.81;;;11.28;76.86
14790;BME280;7486;51.010;10.366;2023-05-23T09:07:45;98129.56;;;12.21;75.28
14790;BME280;7486;51.010;10.366;2023-05-23T09:10:31;98118.31;;;12.26;75.77
14790;BME280;7486;51.010;10.366;2023-05-23T09:13:17;98262.56;;;12.94;76.30
14790;BME280;7486;51.010;10.366;2023-05-23T09:16:05;98186.97;;;12.22;77.88
14790;BME280;7486;51.010;10.366;2023-05-23T09:18:57;98212.38;;;12.36;78.09
14790;BME280;7486;51.010;10.366;2023-05-23T09:21:46;98129.50;;;11.85;78.28
14790;BME280;7486;51.010;10.366;2023-05-23T09:24:38;97986.13;;;10.54;80.91
14790;BME280;7486;51.010;10.366;2023-05-23T09:27:25;98208.75;;;11.75;81.25
14790;BME280;7486;51.010;10.366;2023-05-23T09:30:12;98222.53;;;11.90;82.10
14790;BME280;7486;51.010;10.366;2023-05-23T09:32:58;98279.38;;;12.38;81.99
14790;BME280;7486;51.010;10.366;2023-05-23T09:35:49;98204.00;;;11.83;82.05
14790;BME280;7486;51.010;10.366;2023-05-23T09:38:39;98287.03;;;12.53;81.88
14790;BME280;7486;51.010;10.366;2023-05-23T09:41:24;98263.97;;;12.22;81.16
14790;BME280;7486;51.010;10.366;2023-05-23T09:44:21;98195.22;;;11.83;81.66
14790;BME280;7486;51.010;10.366;2023-05-23T09:47:07;98043.63;;;10.85;80.96
14790;BME280;7486;51.010;10.366;2023-05-23T09:49:53;98136.75;;;11.33;81.84
14790;BME280;7486;51.010;10.366;2023-05-23T09:52:38;98169.69;;;11.50;81.31
14790;BME280;7486;51.010;10.366;2023-05-23T09:55:24;98090.03;;;10.94;80.58
14790;BME280;7486;51.010;10.366;2023-05-23T09:58:10;98263.78;;;12.17;80.40
14790;BME280;7486;51.010;10.366;2023-05-23T10:00:58;98232.72;;;11.93;81.29
14790;BME280;7486;51.010;10.366;2023-05-23T10:03:49;98198.97;;;12.00;80.96
14790;BME280;7486;51.010;10.366;2023-05-23T10:06:46;98295.63;;;12.80;79.28
14790;BME280;7486;51.010;10.366;2023-05-23T10:09:35;98285.13;;;12.85;79.29
14790;BME280;7486;51.010;10.366;2023-05-23T10:15:17;98287.91;;;12.71;78.94
14790;BME280;7486;51.010;10.366;2023-05-23T10:18:15;98211.00;;;12.52;78.46
14790;BME280;7486;51.010;10.366;2023-05-23T10:21:07;98207.13;;;12.05;78.34
14790;BME280;7486;51.010;10.366;2023-05-23T10:23:53;98295.56;;;12.61;78.37
14790;BME280;7486;51.010;10.366;2023-05-23T10:26:39;98193.94;;;11.92;77.82
14790;BME280;7486;51.010;10.366;2023-05-23T10:29:25;98088.41;;;11.31;77.57
14790;BME280;7486;51.010;10.366;2023-05-23T10:32:11;98185.75;;;11.93;77.43
14790;BME280;7486;51.010;10.366;2023-05-23T10:41:48;98201.69;;;12.18;76.09
14790;BME280;7486;51.010;10.366;2023-05-23T10:44:35;98309.03;;;12.66;76.56
14790;BME280;7486;51.010;10.366;2023-05-23T10:47:27;98324.25;;;12.78;76.83
14790;BME280;7486;51.010;10.366;2023-05-23T10:50:15;98216.69;;;12.06;76.42
14790;BME280;7486;51.010;10.366;2023-05-23T10:53:02;98332.84;;;12.48;76.91
14790;BME280;7486;51.010;10.366;2023-05-23T10:55:48;98223.94;;;11.48;78.88
14790;BME280;7486;51.010;10.366;2023-05-23T10:58:35;98277.78;;;11.55;79.92
14790;BME280;7486;51.010;10.366;2023-05-23T11:01:21;98332.75;;;11.92;79.30
14790;BME280;7486;51.010;10.366;2023-05-23T11:04:10;98315.03;;;11.86;80.02
14790;BME280;7486;51.010;10.366;2023-05-23T11:06:57;98253.59;;;11.38;79.40
14790;BME280;7486;51.010;10.366;2023-05-23T11:13:04;98160.41;;;10.77;80.29
14790;BME280;7486;51.010;10.366;2023-05-23T11:15:50;98345.88;;;11.81;82.42
14790;BME280;7486;51.010;10.366;2023-05-23T11:18:35;98132.56;;;10.55;84.52
14790;BME280;7486;51.010;10.366;2023-05-23T11:21:21;98247.19;;;11.52;83.88
14790;BME280;7486;51.010;10.366;2023-05-23T11:24:08;98351.91;;;12.01;85.09
14790;BME280;7486;51.010;10.366;2023-05-23T11:26:57;98366.19;;;11.55;85.49
14790;BME280;7486;51.010;10.366;2023-05-23T11:29:43;98135.25;;;10.09;84.66
14790;BME280;7486;51.010;10.366;2023-05-23T11:32:30;98263.75;;;10.70;86.78
14790;BME280;7486;51.010;10.366;2023-05-23T11:35:16;98349.06;;;11.32;85.86
14790;BME280;7486;51.010;10.366;2023-05-23T11:38:05;98373.50;;;11.66;85.37
14790;BME280;7486;51.010;10.366;2023-05-23T11:40:51;98297.31;;;11.03;85.30
14790;BME280;7486;51.010;10.366;2023-05-23T11:43:36;98210.78;;;10.18;86.38
14790;BME280;7486;51.010;10.366;2023-05-23T11:46:22;98302.81;;;10.09;88.76
14790;BME280;7486;51.010;10.366;2023-05-23T11:49:10;98056.47;;;8.52;89.52
14790;BME280;7486;51.010;10.366;2023-05-23T11:52:00;98359.94;;;10.58;88.32
14790;BME280;7486;51.010;10.366;2023-05-23T11:54:46;98225.13;;;9.56;88.15
14790;BME280;7486;51.010;10.366;2023-05-23T11:57:32;98381.13;;;10.58;89.10
14790;BME280;7486;51.010;10.366;2023-05-23T12:00:18;98413.94;;;10.83;89.17
14790;BME280;7486;51.010;10.366;2023-05-23T12:03:05;98359.06;;;10.44;87.75
14790;BME280;7486;51.010;10.366;2023-05-23T12:05:51;98333.34;;;10.12;88.08
14790;BME280;7486;51.010;10.366;2023-05-23T12:08:36;98268.53;;;9.82;86.87
14790;BME280;7486;51.010;10.366;2023-05-23T12:11:22;98352.94;;;10.37;85.91
14790;BME280;7486;51.010;10.366;2023-05-23T12:14:13;98425.38;;;11.10;86.17
14790;BME280;7486;51.010;10.366;2023-05-23T12:17:04;98430.06;;;11.14;83.31
14790;BME280;7486;51.010;10.366;2023-05-23T12:19:51;98441.50;;;11.08;83.37
14790;BME280;7486;51.010;10.366;2023-05-23T12:22:41;98342.69;;;10.08;82.58
14790;BME280;7486;51.010;10.366;2023-05-23T12:25:26;98172.25;;;9.02;83.85
14790;BME280;7486;51.010;10.366;2023-05-23T12:28:12;98335.38;;;10.03;83.99
14790;BME280;7486;51.010;10.366;2023-05-23T12:30:57;98244.28;;;9.58;83.29
14790;BME280;7486;51.010;10.366;2023-05-23T12:33:44;98436.78;;;10.78;82.05
14790;BME280;7486;51.010;10.366;2023-05-23T12:36:30;98347.66;;;10.37;81.70
14790;BME280;7486;51.010;10.366;2023-05-23T12:39:23;98146.34;;;9.32;79.85
14790;BME280;7486;51.010;10.366;2023-05-23T12:42:09;98410.09;;;11.05;80.45
14790;BME280;7486;51.010;10.366;2023-05-23T12:44:54;98384.78;;;10.70;79.46
14790;BME280;7486;51.010;10.366;2023-05-23T12:47:40;98359.44;;;10.28;79.05
14790;BME280;7486;51.010;10.366;2023-05-23T12:50:25;98415.97;;;10.75;81.03
14790;BME280;7486;51.010;10.366;2023-05-23T12:53:15;98388.88;;;10.79;80.70
14790;BME280;7486;51.010;10.366;2023-05-23T12:56:00;98416.59;;;11.22;79.38
14790;BME280;7486;51.010;10.366;2023-05-23T12:58:46;98401.72;;;11.15;78.42
14790;BME280;7486;51.010;10.366;2023-05-23T13:01:33;98414.16;;;11.08;79.15
14790;BME280;7486;51.010;10.366;2023-05-23T13:04:19;98221.59;;;10.03;78.38
14790;BME280;7486;51.010;10.366;2023-05-23T13:07:04;98413.72;;;11.24;78.59
14790;BME280;7486;51.010;10.366;2023-05-23T13:09:49;98270.66;;;10.32;79.13
14790;BME280;7486;51.010;10.366;2023-05-23T13:12:35;98437.81;;;11.09;78.24
14790;BME280;7486;51.010;10.366;2023-05-23T13:15:20;98225.63;;;9.32;81.34
14790;BME280;7486;51.010;10.366;2023-05-23T13:18:06;98448.41;;;10.90;80.37
14790;BME280;7486;51.010;10.366;2023-05-23T13:20:52;98421.28;;;10.75;80.72
14790;BME280;7486;51.010;10.366;2023-05-23T13:23:38;98341.13;;;10.33;80.09
14790;BME280;7486;51.010;10.366;2023-05-23T13:26:23;98380.13;;;9.98;82.56
14790;BME280;7486;51.010;10.366;2023-05-23T13:29:09;98217.88;;;9.17;84.13
14790;BME280;7486;51.010;10.366;2023-05-23T13:31:55;98269.34;;;9.76;81.74
14790;BME280;7486;51.010;10.366;2023-05-23T13:34:40;98483.91;;;11.28;80.84
14790;BME280;7486;51.010;10.366;2023-05-23T13:37:26;98414.94;;;10.76;81.38
14790;BME280;7486;51.010;10.366;2023-05-23T13:40:16;98256.97;;;9.83;81.40
14790;BME280;7486;51.010;10.366;2023-05-23T13:43:01;98223.28;;;9.50;80.99
14790;BME280;7486;51.010;10.366;2023-05-23T13:45:46;98327.09;;;9.65;82.87
14790;BME280;7486;51.010;10.366;2023-05-23T13:48:32;98482.16;;;10.55;83.41
14790;BME280;7486;51.010;10.366;2023-05-23T13:51:20;98480.97;;;10.64;82.88
14790;BME280;7486;51.010;10.366;2023-05-23T13:54:08;98476.84;;;10.48;83.89
14790;BME280;7486;51.010;10.366;2023-05-23T13:56:58;98456.50;;;10.08;84.40
14790;BME280;7486;51.010;10.366;2023-05-23T13:59:45;98394.28;;;9.78;84.09
14790;BME280;7486;51.010;10.366;2023-05-23T14:02:32;98351.47;;;9.61;82.86
14790;BME280;7486;51.010;10.366;2023-05-23T14:05:17;98416.38;;;10.11;81.86
14790;BME280;7486;51.010;10.366;2023-05-23T14:08:05;98433.59;;;10.41;83.00
14790;BME280;7486;51.010;10.366;2023-05-23T14:10:51;98362.44;;;10.12;79.47
14790;BME280;7486;51.010;10.366;2023-05-23T14:13:36;98331.03;;;9.42;80.37
14790;BME280;7486;51.010;10.366;2023-05-23T14:16:26;98498.34;;;10.32;81.85
14790;BME280;7486;51.010;10.366;2023-05-23T14:19:12;98254.41;;;8.73;82.21
14790;BME280;7486;51.010;10.366;2023-05-23T14:21:59;98465.84;;;10.10;81.47
14790;BME280;7486;51.010;10.366;2023-05-23T14:24:45;98346.94;;;9.14;86.06
14790;BME280;7486;51.010;10.366;2023-05-23T14:27:35;98486.06;;;10.18;86.97
14790;BME280;7486;51.010;10.366;2023-05-23T14:30:20;98407.09;;;9.81;80.76
14790;BME280;7486;51.010;10.366;2023-05-23T14:33:05;98413.34;;;9.66;80.13
14790;BME280;7486;51.010;10.366;2023-05-23T14:35:54;98384.06;;;9.06;81.99
14790;BME280;7486;51.010;10.366;2023-05-23T14:38:40;98381.38;;;8.99;81.81
14790;BME280;7486;51.010;10.366;2023-05-23T14:41:26;98492.69;;;9.66;82.39
14790;BME280;7486;51.010;10.366;2023-05-23T14:44:11;98518.78;;;9.76;83.20
14790;BME280;7486;51.010;10.366;2023-05-23T14:46:57;98474.84;;;9.75;81.84
14790;BME280;7486;51.010;10.366;2023-05-23T14:49:42;98428.09;;;9.48;81.58
14790;BME280;7486;51.010;10.366;2023-05-23T14:52:27;98496.06;;;9.82;80.93
14790;BME280;7486;51.010;10.366;2023-05-23T14:55:13;98473.47;;;9.51;80.23
14790;BME280;7486;51.010;10.366;2023-05-23T14:57:58;98507.63;;;9.53;80.00
14790;BME280;7486;51.010;10.366;2023-05-23T15:00:44;98472.09;;;9.55;80.41
14790;BME280;7486;51.010;10.366;2023-05-23T15:03:30;97926.34;;;6.08;78.64